Date,TemperatureHighF,TemperatureAvgF,TemperatureLowF,DewpointHighF,DewpointAvgF,DewpointLowF,HumidityHigh,HumidityAvg,HumidityLow,PressureMaxIn,PressureMinIn,WindSpeedMaxMPH,WindSpeedAvgMPH,GustSpeedMaxMPH,PrecipitationSumIn
2014-1-1,19.0,18.4,18.0,17.0,15.8,15.0,91,89,86,30.38,30.29,9,3,17,0.16
2014-1-6,-4.0,-8.5,-12.0,-9.0,-13.5,-17.0,80,79,77,30.29,30.09,11,8,28,0.25
2014-1-7,2.0,-4.5,-11.0,-1.0,-9.0,-16.0,85,80,75,30.45,30.28,11,6,24,0.00
2014-1-8,19.0,9.2,-1.0,14.0,4.9,-5.0,88,82,76,30.60,30.44,3,0,7,0.00
2014-1-9,24.0,6.3,-5.0,22.0,3.1,-9.0,93,86,81,30.65,30.35,0,0,3,0.05
2014-1-10,39.0,34.6,24.0,38.0,33.3,22.0,98,95,92,30.34,29.69,6,2,11,0.39
2014-1-11,42.0,37.5,34.0,41.0,35.0,-99.9,98,95,88,29.73,29.42,10,5,21,0.43
2014-1-12,34.0,33.3,32.0,32.0,30.2,28.0,92,88,84,30.02,29.73,8,4,16,0.00
2014-1-13,42.0,39.5,36.0,39.0,36.7,33.0,91,90,88,29.70,29.64,5,3,13,0.00
2014-1-14,39.0,33.2,27.0,33.0,29.0,23.0,94,85,71,29.81,29.70,12,4,24,0.00
2014-1-15,30.0,24.7,21.0,24.0,19.1,14.0,86,79,71,30.05,29.80,11,6,26,0.00
2014-1-16,29.0,23.9,19.0,28.0,20.9,14.0,95,88,75,30.01,29.66,7,5,22,0.04
2014-1-17,29.0,22.0,10.0,28.0,17.7,7.0,95,83,80,30.00,29.67,9,4,19,0.01
2014-1-18,20.0,14.5,6.0,18.0,10.2,-99.9,92,86,79,30.00,29.83,7,2,11,0.06
2014-1-19,32.0,22.3,12.0,27.0,18.4,9.0,92,85,76,29.86,29.58,14,5,26,0.01
2014-1-20,36.0,32.3,20.0,32.0,26.6,15.0,91,79,69,30.00,29.55,11,4,22,0.02
2014-1-21,19.0,8.6,-4.0,16.0,-0.3,-9.0,89,68,47,30.25,29.99,14,6,26,0.02
2014-1-22,13.0,5.8,-5.0,9.0,1.1,-10.0,89,81,68,30.25,30.00,6,2,14,0.00
2014-1-23,14.0,8.0,1.0,9.0,3.5,-3.0,88,81,74,30.55,30.02,9,5,19,0.00
2014-1-24,19.0,6.9,-4.0,17.0,1.7,-8.0,91,79,68,30.55,29.67,14,7,27,0.01
2014-1-25,30.0,20.5,11.0,27.0,15.4,-99.9,94,83,69,29.83,29.40,14,8,28,0.03
2014-1-26,31.0,17.3,6.0,26.0,12.9,1.0,90,83,77,29.84,29.44,12,4,24,0.05
2014-1-27,29.0,7.8,-5.0,26.0,2.0,-10.0,93,77,65,30.40,29.51,16,8,35,0.03
2014-1-28,6.0,-2.5,-11.0,-5.0,-9.5,-15.0,82,72,55,30.49,30.33,7,4,14,0.01
2014-1-29,18.0,8.2,-1.0,6.0,-0.1,-5.0,83,69,51,30.32,30.22,10,5,20,0.00
2014-1-30,29.0,18.2,8.0,25.0,11.1,2.0,91,74,63,30.22,29.83,9,5,27,0.00
2014-1-31,34.0,31.1,27.0,29.0,26.3,21.0,91,83,65,30.15,29.90,6,2,13,0.01
2014-2-1,37.0,32.4,29.0,36.0,30.0,-99.9,97,94,91,30.13,29.80,7,2,12,0.60
2014-2-2,30.0,25.8,19.0,29.0,22.3,15.0,95,87,77,30.29,29.98,7,2,16,0.09
2014-2-3,26.0,16.9,8.0,17.0,11.7,5.0,90,80,65,30.44,30.26,4,1,9,0.00
2014-2-4,24.0,15.6,6.0,19.0,11.6,2.0,92,84,72,30.48,30.11,10,3,19,0.11
2014-2-5,28.0,21.9,11.0,24.0,19.0,8.0,93,88,82,30.40,29.87,14,6,26,0.70
2014-2-6,18.0,10.0,-2.0,14.0,5.6,-6.0,90,82,70,30.43,30.36,11,3,28,0.01
2014-2-7,12.0,2.3,-6.0,3.0,-3.4,-10.0,85,77,64,30.45,30.40,11,3,21,0.00
2014-2-8,16.0,10.9,2.0,12.0,6.4,-2.0,90,82,76,30.42,30.20,3,1,7,0.03
2014-2-9,23.0,17.2,7.0,17.0,12.8,2.0,90,83,73,30.24,30.09,7,2,17,0.13
2014-2-10,20.0,11.3,1.0,12.0,6.0,-4.0,90,80,65,30.44,30.24,7,3,15,0.02
2014-2-11,18.0,8.5,-5.0,7.0,2.0,-9.0,87,75,59,30.55,30.44,4,1,9,0.00
2014-2-12,20.0,3.8,-13.0,11.0,-2.3,-18.0,86,75,65,30.51,30.13,3,1,6,0.00
2014-2-13,28.0,17.6,5.0,19.0,10.8,2.0,89,75,58,30.14,29.54,4,1,9,0.00
2014-2-14,27.0,24.2,18.0,23.0,19.3,14.0,89,81,72,29.83,29.54,9,4,20,0.00
2014-2-15,25.0,18.9,11.0,16.0,11.8,-99.9,91,77,67,30.09,29.83,8,2,14,0.00
2014-2-16,29.0,21.0,14.0,21.0,15.7,9.0,90,80,68,30.35,29.96,6,2,14,0.01
2014-2-17,28.0,16.7,7.0,25.0,13.1,4.0,93,86,77,30.39,29.68,9,4,20,0.25
2014-2-18,41.0,32.3,26.0,33.0,26.8,22.0,93,80,69,30.06,29.71,12,6,29,0.01
2014-2-19,43.0,37.3,30.0,35.0,31.7,27.0,92,80,69,30.06,29.61,10,3,20,0.00
2014-2-20,47.0,34.2,29.0,47.0,32.6,27.0,99,94,87,30.07,29.42,11,4,24,1.38
2014-2-21,43.0,35.9,33.0,40.0,28.0,20.0,90,73,57,29.84,29.47,18,11,44,0.13
2014-2-22,39.0,34.2,28.0,31.0,23.7,-99.9,91,69,44,30.03,29.80,9,4,20,0.00
2014-2-23,33.0,27.6,21.0,30.0,19.7,13.0,88,72,57,30.14,30.01,9,4,18,0.00
2014-2-24,27.0,21.3,18.0,18.0,14.2,12.0,81,74,64,30.22,30.12,10,5,24,0.00
2014-2-25,25.0,20.9,16.0,18.0,15.6,8.0,90,80,69,30.21,30.06,8,3,19,0.01
2014-2-26,16.0,12.7,6.0,11.0,5.5,1.0,87,73,55,30.18,29.73,12,5,23,0.01
2014-2-27,18.0,12.6,1.0,14.0,4.1,-5.0,90,69,50,30.25,29.62,13,6,26,0.00
2014-2-28,24.0,11.2,-3.0,15.0,2.5,-8.0,82,68,52,30.35,30.13,9,2,14,0.00
2014-3-1,34.0,25.8,19.0,27.0,18.3,-99.9,91,76,59,30.27,30.09,5,2,11,0.10
2014-3-2,22.0,17.3,14.0,19.0,12.2,8.0,90,80,67,30.37,30.24,7,3,14,0.32
2014-3-3,15.0,8.0,0.0,8.0,-1.2,-6.0,78,66,50,30.52,30.35,8,3,15,0.02
2014-3-4,22.0,12.1,0.0,13.0,4.2,-6.0,81,70,59,30.47,30.25,5,0,8,0.00
2014-3-5,27.0,19.6,7.0,20.0,13.6,3.0,86,77,66,30.50,30.29,9,4,19,0.04
2014-3-6,29.0,20.3,14.0,19.0,13.5,9.0,83,75,63,30.50,30.20,10,4,16,0.01
2014-3-7,46.0,26.5,6.0,29.0,18.5,2.0,87,73,50,30.19,29.95,3,1,7,0.00
2014-3-8,38.0,34.6,31.0,35.0,30.2,-99.9,93,87,78,30.19,29.94,6,2,11,0.10
2014-3-9,37.0,28.5,15.0,31.0,22.9,12.0,92,80,64,30.28,29.92,9,3,17,0.01
2014-3-10,51.0,42.9,36.0,40.0,35.5,30.0,88,76,62,29.91,29.64,9,5,20,0.00
2014-3-11,58.0,45.3,38.0,41.0,38.2,34.0,93,78,51,29.70,29.62,8,2,15,0.00
2014-3-12,41.0,30.5,20.0,37.0,28.1,16.0,96,91,81,30.03,29.51,17,8,35,0.67
2014-3-13,25.0,15.6,0.0,20.0,10.3,-3.0,90,79,64,30.22,30.01,8,2,14,0.01
2014-3-14,54.0,39.3,25.0,39.0,30.8,21.0,86,72,54,30.02,29.63,13,5,29,0.00
2014-3-15,43.0,37.7,33.0,33.0,29.6,23.0,88,73,58,30.23,29.78,10,4,21,0.00
2014-3-16,33.0,23.6,18.0,23.0,12.9,-99.9,77,67,55,30.37,30.19,14,9,22,0.00
2014-3-17,33.0,21.6,11.0,21.0,12.1,-99.9,83,70,56,30.18,29.92,10,5,20,0.00
2014-3-18,48.0,36.2,22.0,38.0,30.3,20.0,91,79,68,30.01,29.82,8,4,13,0.00
2014-3-19,51.0,40.9,34.0,46.0,38.4,31.0,95,91,80,29.88,29.62,12,4,23,0.04
2014-3-20,44.0,36.5,31.0,34.0,27.9,-99.9,93,75,62,30.06,29.88,11,6,21,0.04
2014-3-21,47.0,36.8,29.0,41.0,31.0,-99.9,94,83,75,30.07,29.70,8,3,15,0.01
2014-3-22,42.0,38.7,33.0,40.0,32.9,27.0,93,80,67,30.22,29.67,10,5,21,0.01
2014-3-23,33.0,27.2,23.0,25.0,14.8,-99.9,75,61,50,30.38,30.22,9,5,18,0.00
2014-3-24,34.0,25.4,18.0,19.0,15.5,13.0,85,67,48,30.37,30.14,9,2,16,0.00
2014-3-25,35.0,26.1,20.0,25.0,18.0,11.0,85,72,57,30.21,29.96,12,4,25,0.00
2014-3-26,36.0,25.8,15.0,22.0,15.8,11.0,87,67,47,30.38,30.21,8,2,11,0.00
2014-3-27,47.0,36.6,31.0,42.0,29.9,22.0,91,77,66,30.19,29.67,8,4,16,0.03
2014-3-28,50.0,43.3,37.0,47.0,39.2,33.0,92,85,77,30.17,29.59,13,7,26,0.02
2014-3-29,39.0,36.9,32.0,35.0,32.3,25.0,94,83,73,30.17,30.04,13,6,25,0.03
2014-4-13,75.0,66.0,60.0,60.0,53.2,-99.9,80,68,53,29.80,29.62,11,4,25,0.00
2014-4-14,68.0,53.3,33.0,57.0,45.5,32.0,95,76,57,29.79,29.41,12,7,31,0.09
2014-4-15,37.0,31.5,27.0,32.0,23.2,15.0,96,73,46,30.24,29.79,11,6,19,0.18
2014-4-16,46.0,35.0,23.0,31.0,23.4,19.0,88,65,45,30.45,30.27,10,3,18,0.00
2014-4-17,67.0,49.2,31.0,40.0,32.1,27.0,88,57,27,30.33,30.21,10,4,19,0.00
2014-4-18,68.0,56.6,44.0,47.0,40.5,35.0,85,57,32,30.28,30.19,9,3,19,0.00
2014-4-19,59.0,48.2,36.0,39.0,34.0,30.0,86,60,36,30.41,30.29,10,5,17,0.00
2014-4-20,74.0,52.9,35.0,40.0,33.1,-99.9,89,55,22,30.32,30.09,8,2,12,0.00
2014-4-21,77.0,59.9,43.0,54.0,45.0,38.0,87,61,33,30.09,29.76,8,2,22,0.00
2014-4-22,62.0,54.5,40.0,57.0,45.0,32.0,94,72,47,29.94,29.67,11,5,28,0.00
2014-4-23,60.0,45.5,34.0,36.0,31.5,26.0,87,62,30,30.10,29.94,8,2,15,0.00
2014-4-24,59.0,48.9,43.0,36.0,31.6,25.0,73,53,29,30.14,29.81,9,4,19,0.00
2014-4-25,61.0,49.2,44.0,50.0,40.6,31.0,96,74,51,29.82,29.64,13,4,24,0.24
2014-4-26,66.0,54.4,45.0,44.0,39.6,33.0,91,61,31,30.04,29.79,9,3,19,0.01
2014-4-27,58.0,45.0,38.0,39.0,33.2,-99.9,86,68,43,30.13,29.98,15,7,24,0.00
2014-4-28,50.0,47.3,45.0,46.0,40.7,34.0,94,78,63,29.99,29.71,20,10,32,0.04
2014-4-29,75.0,61.8,48.0,61.0,49.7,44.0,99,70,36,29.75,29.52,12,5,25,0.19
2014-4-30,66.0,57.8,49.0,56.0,50.3,43.0,96,77,58,29.80,29.68,8,3,18,0.01
2014-5-1,52.0,47.3,40.0,43.0,39.8,37.0,91,76,62,29.80,29.74,11,5,24,0.00
2014-5-2,54.0,49.0,45.0,45.0,43.6,42.0,91,82,65,29.83,29.77,9,4,24,0.00
2014-5-3,64.0,53.7,46.0,48.0,43.5,37.0,94,71,39,29.83,29.66,14,5,30,0.03
2014-5-4,60.0,52.4,44.0,46.0,36.4,-99.9,88,60,30,30.06,29.82,12,3,27,0.02
2014-5-5,58.0,49.4,43.0,41.0,37.1,33.0,81,63,45,30.06,29.92,8,2,17,0.00
2014-5-6,66.0,52.3,39.0,45.0,38.9,35.0,91,63,38,30.06,29.96,12,4,20,0.00
2014-5-7,51.0,51.0,51.0,38.0,38.0,38.0,62,61,60,30.02,29.99,4,3,13,0.00
2014-5-13,71.0,66.6,61.0,68.0,63.8,59.0,96,91,85,30.03,29.92,4,1,19,0.14
2014-5-14,60.0,55.6,53.0,59.0,53.7,52.0,98,93,79,30.10,29.87,10,2,18,0.54
2014-5-15,59.0,51.5,40.0,59.0,49.7,38.0,99,94,83,30.02,29.66,10,3,21,0.69
2014-5-16,54.0,45.2,35.0,44.0,39.0,34.0,99,81,56,30.02,29.97,4,0,10,0.01
2014-5-17,56.0,48.0,42.0,43.0,40.5,37.0,94,77,52,30.20,30.03,9,1,19,0.01
2014-5-18,66.0,51.6,37.0,47.0,37.5,-99.9,98,66,31,30.28,30.20,4,1,13,0.01
2014-5-19,70.0,54.8,39.0,47.0,37.5,-99.9,98,61,36,30.29,30.08,5,1,13,0.00
2014-5-20,80.0,65.5,55.0,66.0,54.6,-99.9,86,70,58,30.14,29.85,5,1,15,0.03
2014-5-21,83.0,72.2,63.0,72.0,65.7,59.0,99,81,56,29.88,29.76,8,1,20,0.83
2014-5-22,72.0,62.8,54.0,59.0,52.2,-99.9,93,72,50,30.04,29.80,6,1,19,0.01
2014-5-23,72.0,60.0,48.0,54.0,50.2,47.0,97,73,45,30.13,30.04,4,1,16,0.00
2014-5-24,77.0,63.2,49.0,57.0,51.9,48.0,97,70,38,30.20,30.10,1,0,9,0.00
2014-5-25,82.0,66.4,51.0,59.0,52.8,-99.9,98,68,36,30.15,30.02,3,0,9,0.00
2014-5-26,86.0,71.4,54.0,68.0,60.8,53.0,97,72,44,30.07,29.90,4,0,17,0.00
2014-5-27,85.0,73.9,64.0,71.0,66.7,63.0,96,79,53,29.95,29.82,5,1,18,0.00
2014-5-28,81.0,70.8,65.0,71.0,66.1,58.0,97,85,68,30.03,29.86,7,0,18,0.00
2014-5-29,79.0,68.6,57.0,62.0,57.8,54.0,90,70,50,30.09,30.01,5,1,11,0.00
2014-5-30,82.0,66.9,53.0,58.0,54.7,52.0,98,69,36,30.17,30.09,3,0,10,0.00
2014-5-31,84.0,69.7,54.0,60.0,55.3,52.0,93,64,37,30.20,30.08,3,0,13,0.00
2014-6-1,87.0,69.7,53.0,62.0,51.9,-99.9,93,59,31,30.14,29.93,5,0,12,0.00
2014-6-2,79.0,73.6,69.0,70.0,67.4,60.0,92,81,69,29.97,29.82,6,2,19,0.04
2014-6-3,82.0,73.5,63.0,69.0,61.2,51.0,93,69,39,29.89,29.82,10,2,29,0.04
2014-6-4,64.0,59.7,55.0,61.0,56.1,51.0,97,88,66,29.89,29.77,4,1,17,0.45
2014-6-5,75.0,63.3,53.0,56.0,52.3,48.0,99,72,39,29.94,29.83,3,0,10,0.01
2014-6-6,80.0,65.3,49.0,58.0,52.5,48.0,98,69,34,29.99,29.91,2,0,5,0.00
2014-6-7,83.0,69.4,52.0,61.0,56.7,51.0,98,68,39,30.02,29.82,3,0,9,0.00
2014-6-8,77.0,65.8,59.0,64.0,54.8,-99.9,97,73,52,29.93,29.72,8,1,19,0.38
2014-6-9,79.0,68.3,56.0,61.0,57.3,53.0,96,71,42,29.99,29.88,4,0,10,0.02
2014-6-10,75.0,66.8,57.0,66.0,61.2,55.0,95,83,68,29.91,29.80,4,1,13,0.03
2014-6-11,72.0,67.9,65.0,69.0,66.5,64.0,98,96,89,29.80,29.65,2,0,9,0.43
2014-6-12,78.0,68.6,64.0,67.0,65.1,63.0,99,89,67,29.77,29.67,2,0,12,0.02
2014-6-13,71.0,65.0,52.0,66.0,55.8,48.0,92,73,56,30.01,29.74,6,1,21,0.01
2014-6-14,78.0,62.1,45.0,54.0,48.3,44.0,98,66,32,30.12,30.01,1,0,8,0.00
2014-6-15,82.0,68.2,50.0,66.0,54.4,-99.9,96,68,51,30.09,29.89,4,0,17,0.00
2014-6-16,87.0,77.3,67.0,70.0,66.5,63.0,94,71,50,30.03,29.95,1,0,11,0.00
2014-6-17,88.0,78.6,69.0,74.0,71.0,67.0,97,79,62,29.97,29.79,8,2,22,0.00
2014-6-18,87.0,75.9,68.0,75.0,70.9,66.0,98,86,66,29.98,29.87,6,0,21,0.24
2014-6-19,76.0,71.3,67.0,70.0,67.5,63.0,99,89,76,30.08,29.93,3,1,11,0.32
2014-6-20,70.0,65.4,61.0,66.0,63.1,60.0,96,92,88,30.06,29.90,2,0,10,0.30
2014-6-21,81.0,69.1,59.0,69.0,63.0,57.0,97,82,62,29.97,29.85,0,0,7,0.14
2014-6-22,80.0,69.7,59.0,68.0,59.7,-99.9,95,75,58,29.92,29.83,2,0,8,0.11
2014-6-23,83.0,69.0,61.0,74.0,65.6,58.0,98,89,69,29.93,29.82,10,0,25,1.20
2014-6-24,77.0,70.5,66.0,74.0,69.3,66.0,99,96,85,29.88,29.83,2,0,10,0.41
2014-6-25,83.0,73.9,64.0,73.0,69.2,63.0,99,86,66,29.96,29.83,6,0,18,0.37
2014-6-26,82.0,70.1,61.0,70.0,65.8,61.0,99,87,64,30.02,29.95,1,0,5,0.55
2014-6-27,84.0,73.2,62.0,70.0,65.4,61.0,99,79,55,30.07,30.00,2,0,8,0.01
2014-6-28,81.0,73.4,65.0,74.0,70.1,64.0,97,90,79,30.07,29.98,1,0,7,0.30
2014-6-29,85.0,73.4,69.0,75.0,65.4,-99.9,99,84,68,30.01,29.89,3,0,12,0.05
2014-6-30,83.0,75.5,69.0,75.0,71.6,68.0,98,88,74,29.93,29.73,1,0,15,0.00
2014-7-1,82.0,73.4,65.0,73.0,68.3,64.0,99,85,62,29.75,29.62,4,1,24,0.12
2014-7-2,76.0,70.2,64.0,68.0,64.6,59.0,97,83,67,29.93,29.74,4,1,14,0.02
2014-7-3,73.0,64.9,59.0,60.0,54.9,51.0,95,72,47,30.13,29.92,3,1,13,0.01
2014-7-4,76.0,64.7,52.0,60.0,51.9,46.0,94,68,35,30.27,30.13,4,1,12,0.00
2014-7-5,77.0,65.4,51.0,61.0,55.7,50.0,97,73,45,30.29,30.07,0,0,8,0.00
2014-7-6,77.0,68.9,61.0,70.0,58.8,-99.9,90,76,67,30.07,29.77,1,0,12,0.00
2014-7-7,83.0,76.2,72.0,75.0,70.7,66.0,89,83,70,29.78,29.65,4,1,15,0.00
2014-7-8,78.0,72.0,68.0,71.0,67.1,63.0,98,86,61,29.74,29.57,7,1,19,0.02
2014-7-9,78.0,69.4,61.0,65.0,61.4,57.0,96,77,56,29.99,29.74,4,1,13,0.02
2014-7-10,78.0,67.1,55.0,61.0,56.1,53.0,96,71,44,30.13,29.99,1,0,9,0.02
2014-7-11,82.0,68.8,55.0,63.0,59.4,54.0,99,75,47,30.20,30.10,1,0,8,0.00
2014-7-12,84.0,72.5,62.0,72.0,66.4,61.0,96,82,63,30.13,29.90,1,0,12,0.00
2014-7-13,83.0,71.0,67.0,72.0,66.9,65.0,98,84,63,29.90,29.80,2,0,15,0.11
2014-7-14,85.0,71.5,65.0,71.0,65.0,60.0,98,83,43,29.85,29.72,1,0,9,0.02
2014-7-15,69.0,64.5,57.0,65.0,57.8,53.0,97,80,63,29.88,29.72,5,1,21,0.02
2014-7-16,66.0,59.1,52.0,57.0,54.3,51.0,98,85,72,30.00,29.88,2,0,10,0.01
2014-7-17,77.0,63.5,51.0,58.0,52.9,49.0,97,73,37,30.11,30.00,1,0,8,0.01
2014-7-18,79.0,66.6,52.0,61.0,55.1,51.0,98,70,45,30.20,30.10,3,0,10,0.00
2014-7-19,77.0,67.3,60.0,64.0,60.7,56.0,95,80,61,30.10,29.98,4,0,8,0.00
2014-7-20,82.0,69.4,57.0,66.0,59.5,56.0,99,74,49,30.05,29.98,3,0,8,0.00
2014-7-21,87.0,74.6,59.0,68.0,63.5,58.0,99,72,43,30.10,30.03,2,0,8,0.00
2014-7-22,88.0,77.0,62.0,70.0,67.0,61.0,98,74,54,30.07,29.91,2,0,11,0.00
2014-7-23,76.0,72.1,66.0,71.0,65.6,60.0,94,80,65,30.02,29.87,5,1,14,0.02
2014-7-24,76.0,66.2,57.0,61.0,55.8,52.0,89,71,46,30.09,30.01,3,0,11,0.00
2014-7-25,77.0,64.8,52.0,61.0,57.1,51.0,98,78,53,30.08,29.93,2,0,9,0.00
2014-7-26,79.0,68.7,58.0,74.0,65.2,57.0,98,89,70,29.95,29.75,2,0,9,0.51
2014-7-27,82.0,70.0,62.0,75.0,67.7,61.0,99,90,75,29.78,29.57,2,0,12,1.30
2014-7-28,71.0,64.3,60.0,62.0,60.1,56.0,99,87,65,29.95,29.70,5,1,16,1.19
2014-7-29,72.0,59.8,50.0,62.0,55.3,49.0,98,86,67,30.01,29.95,2,0,12,0.05
2014-7-30,76.0,65.4,56.0,65.0,60.2,55.0,99,85,64,29.99,29.94,3,0,12,0.01
2014-7-31,79.0,63.4,54.0,65.0,57.2,53.0,99,81,59,30.02,29.98,2,0,9,0.00
2014-8-1,81.0,69.6,61.0,68.0,63.6,60.0,98,83,58,30.07,30.01,0,0,6,0.00
2014-8-2,80.0,69.1,63.0,66.0,63.2,60.0,97,83,51,30.10,30.03,3,0,10,0.01
2014-8-3,84.0,68.0,60.0,66.0,57.7,50.0,99,72,32,30.10,30.02,0,0,5,0.01
2014-8-4,83.0,70.9,59.0,69.0,64.8,58.0,98,82,62,30.08,30.00,0,0,9,0.01
2014-8-5,77.0,69.4,63.0,70.0,66.5,62.0,98,91,79,30.04,29.96,1,0,12,0.20
2014-8-6,80.0,70.9,63.0,67.0,62.9,60.0,99,78,54,30.02,29.96,2,0,8,0.20
2014-8-7,81.0,68.8,56.0,62.0,58.5,55.0,99,74,43,30.09,30.01,2,0,8,0.00
2014-8-8,81.0,69.5,56.0,64.0,58.7,54.0,96,72,46,30.10,30.02,3,0,11,0.00
2014-8-9,80.0,68.4,58.0,66.0,59.6,55.0,96,76,50,30.08,30.01,5,1,13,0.00
2014-8-10,86.0,70.4,61.0,71.0,61.7,56.0,94,73,54,30.05,29.92,3,1,10,0.00
2014-8-11,74.0,69.0,66.0,71.0,67.5,65.0,99,95,88,29.94,29.70,1,0,10,0.86
2014-8-12,71.0,66.3,61.0,68.0,63.9,59.0,99,92,82,29.86,29.67,3,1,15,0.02
2014-8-13,77.0,65.3,54.0,64.0,58.7,53.0,98,81,57,29.97,29.88,4,0,14,0.01
2014-8-14,71.0,60.2,53.0,58.0,52.5,47.0,95,78,45,30.04,29.96,5,0,13,0.00
2014-8-15,74.0,58.5,46.0,56.0,50.6,45.0,96,78,46,30.06,29.96,4,0,9,0.00
2014-8-16,78.0,65.3,49.0,70.0,59.8,48.0,98,83,62,29.97,29.86,3,0,12,0.00
2014-8-17,80.0,70.4,66.0,72.0,66.7,64.0,99,87,72,29.94,29.88,4,0,10,0.00
2014-8-18,82.0,70.3,63.0,69.0,63.8,60.0,96,81,62,29.91,29.77,3,0,10,0.00
2014-8-19,83.0,70.2,61.0,73.0,65.8,60.0,99,87,68,29.80,29.70,1,0,13,0.79
2014-8-20,82.0,72.6,64.0,73.0,68.5,64.0,100,88,68,29.92,29.73,4,0,15,0.01
2014-8-21,78.0,72.4,66.0,73.0,69.8,66.0,99,92,83,29.97,29.91,1,0,13,0.00
2014-8-22,85.0,75.5,69.0,76.0,72.2,68.0,99,90,71,29.95,29.88,2,0,8,0.00
2014-8-23,81.0,74.1,68.0,73.0,69.8,67.0,99,87,74,29.99,29.93,4,0,10,0.00
2014-8-24,81.0,71.2,64.0,73.0,67.2,63.0,99,86,75,30.03,29.98,4,0,9,0.00
2014-8-25,88.0,76.1,67.0,77.0,71.4,66.0,99,86,66,30.04,29.96,2,0,7,0.00
2014-8-26,84.0,74.0,66.0,74.0,70.2,65.0,98,88,69,30.06,29.99,0,0,11,0.00
2014-8-27,84.0,72.6,66.0,69.0,66.3,62.0,99,83,50,30.07,30.01,2,0,11,0.00
2014-8-28,78.0,67.5,60.0,64.0,60.9,58.0,97,81,57,30.11,30.03,3,0,9,0.00
2014-8-29,83.0,71.4,58.0,72.0,64.2,55.0,91,79,62,30.09,29.95,1,0,13,0.00
2014-8-30,82.0,74.2,66.0,72.0,68.8,65.0,97,84,68,29.96,29.84,5,1,16,0.00
2014-8-31,83.0,73.4,69.0,72.0,68.9,68.0,96,85,67,29.93,29.87,2,0,10,0.00
2014-9-1,83.0,73.6,68.0,75.0,70.7,67.0,99,91,70,29.90,29.72,5,0,20,0.09
2014-9-2,76.0,69.7,64.0,71.0,67.1,63.0,99,92,76,29.91,29.82,3,0,15,0.13
2014-9-3,83.0,67.8,59.0,68.0,62.3,58.0,100,85,51,30.02,29.91,0,0,8,0.02
2014-9-4,85.0,71.8,60.0,74.0,67.4,59.0,99,87,68,30.04,29.93,3,0,15,0.04
2014-9-5,91.0,77.4,68.0,78.0,71.2,67.0,98,83,56,30.01,29.83,5,1,19,0.51
2014-9-6,72.0,66.4,58.0,69.0,62.8,56.0,99,89,64,30.12,29.93,2,0,11,0.60
2014-9-7,76.0,62.6,51.0,58.0,53.3,50.0,99,74,41,30.21,30.11,1,0,8,0.01
2014-9-8,78.0,64.6,50.0,60.0,55.6,49.0,99,75,47,30.16,30.01,3,0,11,0.01
2014-9-9,73.0,63.3,54.0,65.0,59.8,53.0,99,89,68,30.04,29.93,1,0,5,0.03
2014-9-10,73.0,67.1,61.0,73.0,66.5,60.0,99,98,93,29.94,29.58,6,0,22,2.79
2014-9-11,71.0,58.0,54.0,71.0,55.0,51.0,99,90,79,30.17,29.63,5,1,21,0.61
2014-9-12,59.0,55.8,53.0,54.0,51.5,50.0,93,86,75,30.27,30.14,2,0,8,0.00
2014-9-13,62.0,54.0,46.0,54.0,49.5,45.0,99,86,58,30.31,30.11,5,0,19,0.11
2014-9-14,64.0,51.9,44.0,52.0,47.1,43.0,99,85,57,30.34,30.18,2,0,8,0.02
2014-9-15,58.0,51.6,44.0,57.0,51.0,43.0,99,98,94,30.19,30.05,0,0,5,0.33
2014-9-16,66.0,54.3,49.0,54.0,51.0,47.0,100,90,53,30.17,30.06,2,0,8,0.28
2014-9-17,67.0,51.5,42.0,53.0,47.3,41.0,99,88,53,30.08,29.95,2,0,12,0.01
2014-9-18,71.0,56.7,44.0,54.0,49.7,43.0,99,81,48,30.16,30.00,3,0,8,0.01
2014-9-19,71.0,56.9,46.0,56.0,50.9,45.0,98,82,49,30.23,30.03,2,0,9,0.01
2014-9-20,78.0,61.0,49.0,67.0,56.9,48.0,98,88,64,30.03,29.78,8,1,21,0.37
2014-9-21,67.0,60.5,53.0,67.0,57.8,50.0,99,90,77,30.00,29.63,7,2,24,0.52
2014-9-22,64.0,52.2,47.0,50.0,44.2,41.0,96,77,51,30.26,30.01,4,0,14,0.01
2014-9-23,71.0,54.7,43.0,54.0,48.7,42.0,99,83,53,30.35,30.27,0,0,3,0.00
2014-9-24,75.0,60.2,46.0,56.0,50.9,45.0,99,76,43,30.39,30.27,2,0,10,0.01
2014-9-25,77.0,61.6,48.0,58.0,52.0,47.0,99,75,38,30.31,30.20,2,0,9,0.01
2014-9-26,77.0,62.4,55.0,62.0,56.5,53.0,99,84,48,30.28,30.19,2,0,8,0.01
2014-9-27,77.0,63.3,52.0,62.0,55.6,51.0,99,79,41,30.27,30.14,3,0,10,0.01
2014-9-28,78.0,61.6,53.0,63.0,55.9,52.0,99,83,48,30.16,30.03,2,0,6,0.00
2014-9-29,78.0,61.5,50.0,62.0,55.6,49.0,99,84,50,30.02,29.87,1,0,9,0.01
2014-9-30,61.0,55.8,50.0,60.0,52.7,48.0,98,89,79,29.99,29.85,2,0,11,0.01
2014-10-1,66.0,56.3,49.0,55.0,51.2,48.0,98,84,60,30.05,29.96,1,0,9,0.01
2014-10-2,73.0,60.9,51.0,67.0,58.6,50.0,99,93,73,30.01,29.75,3,0,10,0.20
2014-10-3,68.0,60.8,49.0,65.0,58.9,46.0,99,94,84,29.74,29.42,6,2,25,0.37
2014-10-4,48.0,43.5,41.0,46.0,39.2,35.0,98,85,64,29.75,29.66,9,3,24,0.08
2014-10-5,56.0,45.5,40.0,45.0,39.2,36.0,93,79,48,29.78,29.67,6,1,21,0.03
2014-10-6,55.0,49.4,44.0,54.0,47.2,42.0,98,92,81,29.70,29.59,4,0,11,0.12
2014-10-7,56.0,48.5,42.0,56.0,48.2,41.0,100,99,97,29.78,29.65,1,0,8,0.13
2014-10-8,60.0,49.0,44.0,51.0,45.6,36.0,100,89,45,29.99,29.78,10,2,21,0.02
2014-10-9,61.0,48.5,42.0,48.0,42.8,38.0,95,82,51,30.10,29.98,4,0,13,0.01
2014-10-10,58.0,47.6,38.0,44.0,40.0,36.0,97,77,53,30.15,30.08,3,0,12,0.00
2014-10-11,58.0,46.5,35.0,43.0,37.5,34.0,98,74,41,30.23,30.12,4,0,14,0.00
2014-10-12,63.0,47.4,33.0,48.0,38.1,32.0,99,73,39,30.20,29.97,6,1,15,0.00
2014-10-13,73.0,61.1,51.0,68.0,58.7,47.0,100,92,81,29.98,29.73,8,1,17,0.28
2014-10-14,70.0,63.5,59.0,65.0,61.4,57.0,98,94,83,29.72,29.49,8,2,21,0.12
2014-10-15,62.0,56.9,53.0,57.0,54.5,53.0,99,92,73,29.75,29.65,3,0,9,0.10
2014-10-16,63.0,57.3,52.0,58.0,54.7,52.0,100,92,75,29.77,29.70,8,1,15,0.10
2014-10-17,66.0,56.8,52.0,55.0,52.3,50.0,97,86,63,29.71,29.52,9,2,19,0.08
2014-10-18,52.0,47.8,44.0,51.0,44.2,37.0,97,87,77,30.12,29.69,6,3,25,0.08
2014-10-19,53.0,42.6,32.0,42.0,36.9,31.0,98,81,57,30.23,29.98,3,0,12,0.01
2014-10-20,55.0,50.6,46.0,54.0,48.2,42.0,97,91,79,29.98,29.77,5,1,15,0.09
2014-10-21,52.0,47.9,44.0,50.0,43.9,39.0,98,86,75,30.22,29.88,6,1,15,0.01
2014-10-22,49.0,43.8,36.0,43.0,39.9,35.0,97,86,78,30.35,30.21,6,0,12,0.00
2014-10-23,58.0,43.5,31.0,46.0,38.6,31.0,99,84,54,30.29,30.10,4,0,9,0.01
2014-10-24,60.0,45.7,34.0,52.0,42.8,33.0,99,90,72,30.11,29.97,1,0,7,0.01
2014-10-25,68.0,55.4,45.0,57.0,48.1,36.0,99,80,37,29.96,29.79,10,3,24,0.01
2014-10-26,63.0,49.1,36.0,42.0,36.9,34.0,93,66,37,29.97,29.86,7,1,16,0.01
2014-10-27,76.0,58.0,39.0,62.0,48.5,35.0,92,72,50,29.95,29.66,10,2,30,0.02
2014-10-28,70.0,59.8,45.0,60.0,52.2,41.0,98,77,55,29.91,29.69,8,3,31,0.60
2014-10-29,48.0,44.4,40.0,41.0,39.9,37.0,93,84,73,30.11,29.91,7,2,17,0.01
2014-10-30,49.0,43.6,39.0,43.0,39.8,37.0,98,87,68,30.15,30.02,3,0,9,0.01
2014-10-31,45.0,41.1,35.0,42.0,37.6,30.0,96,87,81,30.14,29.89,12,4,28,0.11
2014-11-1,43.0,35.4,29.0,31.0,26.7,23.0,92,71,49,30.38,30.14,13,6,27,0.01
2014-11-2,50.0,34.5,22.0,28.0,23.7,20.0,94,68,36,30.46,30.30,3,0,9,0.00
2014-11-3,62.0,49.4,38.0,40.0,32.8,24.0,67,54,38,30.32,30.05,7,2,19,0.00
2014-11-4,57.0,51.3,43.0,50.0,42.3,34.0,97,74,42,30.08,29.91,9,3,25,0.13
2014-11-5,59.0,46.6,38.0,42.0,39.9,36.0,96,80,50,30.16,29.98,4,1,15,0.04
2014-11-6,48.0,44.1,39.0,46.0,42.2,35.0,98,94,82,30.04,29.71,8,2,21,0.22
2014-11-7,43.0,38.8,32.0,36.0,33.2,29.0,91,80,68,30.15,29.94,8,2,17,0.04
2014-11-8,45.0,40.3,36.0,40.0,36.1,33.0,89,84,77,29.94,29.75,9,2,18,0.00
2014-11-9,45.0,40.0,33.0,35.0,33.1,31.0,92,77,60,29.96,29.83,8,1,19,0.00
2014-11-10,59.0,49.1,42.0,45.0,38.2,35.0,83,67,49,29.92,29.71,8,2,19,0.00
2014-11-11,61.0,46.7,37.0,51.0,40.8,34.0,96,80,62,29.97,29.66,11,4,23,0.06
2014-11-12,37.0,33.1,31.0,35.0,27.1,24.0,91,76,70,30.26,29.97,9,5,24,0.03
2014-11-13,34.0,28.9,24.0,27.0,24.3,21.0,90,83,71,30.26,30.19,9,4,17,0.00
2014-11-18,19.0,14.8,11.0,11.0,8.6,6.0,82,76,69,30.21,29.93,11,7,25,0.00
2014-11-19,33.0,23.1,15.0,28.0,17.7,10.0,91,80,72,30.20,29.76,11,5,26,0.00
2014-11-20,28.0,23.7,18.0,19.0,15.3,11.0,80,70,58,30.20,29.97,11,5,27,0.00
2014-11-21,29.0,21.0,12.0,18.0,14.2,9.0,87,75,61,30.53,30.22,3,0,9,0.00
2014-11-22,49.0,37.1,19.0,45.0,33.9,14.0,96,86,76,30.37,29.96,5,1,13,0.18
2014-11-23,57.0,49.5,45.0,52.0,47.0,43.0,98,92,80,29.98,29.18,8,2,18,0.99
2014-11-24,56.0,44.1,34.0,55.0,40.6,28.0,99,87,79,29.77,29.06,20,10,39,1.15
2014-11-25,34.0,30.7,29.0,29.0,25.4,23.0,86,81,73,30.23,29.77,12,4,25,0.01
2014-11-26,33.0,30.5,28.0,28.0,25.1,22.0,84,80,76,30.23,30.10,2,0,7,0.00
2014-11-27,35.0,30.5,26.0,30.0,25.6,19.0,91,82,73,30.36,30.12,10,3,21,0.00
2014-11-28,31.0,26.3,21.0,25.0,21.4,18.0,89,82,74,30.39,30.06,4,1,14,0.00
2014-11-29,50.0,40.1,30.0,47.0,34.4,24.0,90,79,69,30.06,29.73,7,3,16,0.00
2014-11-30,61.0,53.1,41.0,56.0,49.9,38.0,97,90,83,30.10,29.73,8,5,18,0.00
2014-12-1,41.0,31.2,22.0,38.0,22.5,15.0,89,70,53,30.61,30.10,9,4,19,0.00
2014-12-2,32.0,27.7,21.0,30.0,23.4,15.0,94,84,75,30.60,30.11,5,2,11,0.00
2014-12-3,40.0,33.2,26.0,32.0,26.9,21.0,95,79,54,30.35,30.07,12,4,23,0.00
2014-12-4,34.0,29.9,26.0,27.0,24.2,22.0,86,79,67,30.45,30.35,5,1,11,0.00
2014-12-5,41.0,36.6,32.0,36.0,31.8,28.0,86,83,77,30.35,30.17,3,0,9,0.00
2014-12-6,41.0,36.0,30.0,35.0,30.5,22.0,89,79,69,30.62,30.17,12,4,23,0.00
2014-12-7,38.0,30.5,25.0,29.0,24.6,19.0,90,79,69,30.68,30.42,7,3,14,0.00
2014-12-8,41.0,35.0,29.0,38.0,31.2,25.0,96,86,78,30.42,30.05,4,0,11,0.03
2014-12-9,40.0,37.9,35.0,39.0,36.0,32.0,96,93,84,30.27,30.04,9,1,19,0.03
2014-12-10,35.0,29.4,24.0,33.0,25.1,22.0,91,79,73,30.31,30.16,7,2,15,0.00
2014-12-11,38.0,28.1,22.0,29.0,23.9,19.0,93,83,63,30.21,30.13,9,4,19,0.00
2014-12-12,36.0,30.8,26.0,32.0,28.7,24.0,97,92,84,30.27,30.19,9,4,18,0.00
2014-12-13,45.0,39.0,31.0,43.0,37.6,30.0,98,95,91,30.25,30.07,6,3,16,0.00
2014-12-14,54.0,47.4,46.0,48.0,44.2,43.0,92,87,79,30.11,30.04,5,2,14,0.00
2014-12-15,51.0,45.3,42.0,44.0,42.5,41.0,98,90,76,30.08,29.76,5,1,15,0.20
2014-12-16,47.0,43.5,38.0,46.0,42.6,34.0,99,97,91,29.98,29.65,11,3,18,0.36
2014-12-17,37.0,31.2,29.0,35.0,27.4,24.0,92,85,80,30.24,29.98,11,6,21,0.01
2014-12-18,31.0,29.4,29.0,27.0,26.0,24.0,91,87,80,30.27,30.21,7,2,13,0.00
2014-12-19,32.0,29.5,25.0,28.0,26.3,22.0,93,88,79,30.34,30.23,5,0,10,0.00
2014-12-20,35.0,27.8,26.0,28.0,23.3,23.0,92,81,72,30.32,30.26,1,0,4,0.00
2014-12-21,35.0,30.8,24.0,31.0,27.3,22.0,93,87,80,30.32,30.17,3,0,8,0.00
2014-12-22,39.0,31.5,24.0,37.0,28.9,22.0,95,90,85,30.17,29.78,7,3,13,0.02
2014-12-23,56.0,46.0,39.0,52.0,44.0,37.0,98,93,81,29.78,29.69,4,1,12,0.02
2014-12-24,47.0,42.2,37.0,47.0,41.5,35.0,99,98,94,29.69,29.28,10,4,23,0.68
2014-12-25,38.0,36.9,34.0,36.0,33.9,32.0,96,89,83,30.14,29.57,8,4,18,0.02
2014-12-26,50.0,39.1,32.0,43.0,36.2,30.0,95,89,76,30.15,30.07,5,0,14,0.00
2014-12-27,48.0,43.6,36.0,47.0,41.5,34.0,97,91,87,30.13,29.95,7,2,22,0.05
2014-12-28,36.0,34.0,28.0,35.0,30.0,24.0,95,85,75,30.23,30.01,6,1,17,0.04
2014-12-29,34.0,27.3,21.0,28.0,21.9,18.0,94,81,59,30.45,30.23,5,0,11,0.00
2014-12-30,26.0,22.0,17.0,19.0,15.8,11.0,86,76,65,30.59,30.45,6,2,16,0.00
2014-12-31,21.0,17.0,13.0,11.0,8.5,2.0,82,70,45,30.55,30.19,11,5,24,0.00
2015-1-1,30.0,24.0,18.0,20.0,14.2,10.0,75,66,51,30.19,29.98,11,6,24,0.00
2015-1-2,36.0,29.0,23.0,26.0,22.4,18.0,84,76,66,30.35,30.14,3,1,8,0.00